createdAt,value
2017-05-11T00:00:00.824Z,7.00
2017-05-11T00:02:29.332Z,7.00
2017-05-11T00:04:57.891Z,7.00
2017-05-11T00:07:26.407Z,7.00
2017-05-11T00:09:54.923Z,6.90
2017-05-11T00:12:23.485Z,6.90
2017-05-11T00:14:52.008Z,6.80
2017-05-11T00:17:20.531Z,6.70
2017-05-11T00:19:49.091Z,6.60
2017-05-11T00:22:17.625Z,6.60
2017-05-11T00:24:46.148Z,6.60
2017-05-11T00:27:14.700Z,6.50
2017-05-11T00:29:43.206Z,6.40
2017-05-11T00:32:11.723Z,6.30
2017-05-11T00:34:40.276Z,6.30
2017-05-11T00:37:08.807Z,6.30
2017-05-11T00:39:37.330Z,6.30
2017-05-11T00:42:05.888Z,6.30
2017-05-11T00:44:35.186Z,6.30
2017-05-11T00:47:03.698Z,6.30
2017-05-11T00:49:32.251Z,6.30
2017-05-11T00:52:00.780Z,6.40
2017-05-11T00:54:29.320Z,6.30
2017-05-11T00:56:57.884Z,6.30
2017-05-11T00:59:26.404Z,6.40
2017-05-11T01:01:54.940Z,6.40
2017-05-11T01:04:23.503Z,6.40
2017-05-11T01:06:52.038Z,6.50
2017-05-11T01:09:20.563Z,6.40
2017-05-11T01:11:49.129Z,6.40
2017-05-11T01:14:17.649Z,6.50
2017-05-11T01:16:46.186Z,6.50
2017-05-11T01:19:14.773Z,6.50
2017-05-11T01:21:43.304Z,6.60
2017-05-11T01:24:11.848Z,6.60
2017-05-11T01:26:40.423Z,6.60
2017-05-11T01:29:08.971Z,6.60
2017-05-11T01:31:37.508Z,6.60
2017-05-11T01:34:06.099Z,6.60
2017-05-11T01:36:34.648Z,6.60
2017-05-11T01:39:03.216Z,6.50
2017-05-11T01:41:31.793Z,6.50
2017-05-11T01:44:00.345Z,6.50
2017-05-11T01:46:28.895Z,6.50
2017-05-11T01:48:57.513Z,6.50
2017-05-11T01:51:26.057Z,6.50
2017-05-11T01:53:54.569Z,6.60
2017-05-11T01:56:23.141Z,6.70
2017-05-11T01:58:51.675Z,6.60
2017-05-11T02:01:20.200Z,6.60
2017-05-11T02:03:48.771Z,6.60
2017-05-11T02:06:17.293Z,6.60
2017-05-11T02:08:45.832Z,6.50
2017-05-11T02:11:14.399Z,6.40
2017-05-11T02:13:42.931Z,6.30
2017-05-11T02:16:11.460Z,6.40
2017-05-11T02:18:40.058Z,6.50
2017-05-11T02:21:08.570Z,6.50
2017-05-11T02:23:37.105Z,6.50
2017-05-11T02:26:05.663Z,6.40
2017-05-11T02:28:34.194Z,6.40
2017-05-11T02:31:02.741Z,6.40
2017-05-11T02:33:31.335Z,6.40
2017-05-11T02:35:59.876Z,6.40
2017-05-11T02:38:28.408Z,6.20
2017-05-11T02:40:56.984Z,6.10
2017-05-11T02:43:25.510Z,5.90
2017-05-11T02:45:54.058Z,5.80
2017-05-11T02:48:22.623Z,5.80
2017-05-11T02:50:51.154Z,5.80
2017-05-11T02:53:19.702Z,5.80
2017-05-11T02:55:48.272Z,5.70
2017-05-11T02:58:16.784Z,5.70
2017-05-11T03:00:45.309Z,5.80
2017-05-11T03:03:13.885Z,5.90
2017-05-11T03:05:42.403Z,5.90
2017-05-11T03:08:10.918Z,6.00
2017-05-11T03:10:39.493Z,6.10
2017-05-11T03:13:08.029Z,6.20
2017-05-11T03:15:36.545Z,6.20
2017-05-11T03:18:05.122Z,6.20
2017-05-11T03:20:33.642Z,6.30
2017-05-11T03:23:02.169Z,6.30
2017-05-11T03:25:30.741Z,6.40
2017-05-11T03:27:59.265Z,6.50
2017-05-11T03:30:27.788Z,6.50
2017-05-11T03:32:56.373Z,6.40
2017-05-11T03:35:24.893Z,6.30
2017-05-11T03:37:53.414Z,6.40
2017-05-11T03:40:21.978Z,6.60
2017-05-11T03:42:50.499Z,6.90
2017-05-11T03:45:19.031Z,7.30
2017-05-11T03:47:47.633Z,7.70
2017-05-11T03:50:16.156Z,8.10
2017-05-11T03:52:44.691Z,8.20
2017-05-11T03:55:13.257Z,8.40
2017-05-11T03:57:41.779Z,8.40
2017-05-11T04:00:10.333Z,8.70
2017-05-11T04:02:38.922Z,9.50
2017-05-11T04:05:07.456Z,10.20
2017-05-11T04:07:36.007Z,10.80
2017-05-11T04:10:04.622Z,11.00
2017-05-11T04:12:33.149Z,10.90
2017-05-11T04:15:01.687Z,11.60
2017-05-11T04:17:30.241Z,12.30
2017-05-11T04:19:58.773Z,13.30
2017-05-11T04:22:27.298Z,14.10
2017-05-11T04:24:55.876Z,14.60
2017-05-11T04:27:24.425Z,15.30
2017-05-11T04:29:52.943Z,16.10
2017-05-11T04:32:21.521Z,16.50
2017-05-11T04:34:50.111Z,17.10
2017-05-11T04:37:18.636Z,17.70
2017-05-11T04:39:47.207Z,17.40
2017-05-11T04:42:15.736Z,17.40
2017-05-11T04:44:44.268Z,17.40
2017-05-11T04:47:12.883Z,17.40
2017-05-11T04:49:41.408Z,17.50
2017-05-11T04:52:09.923Z,16.70
2017-05-11T04:54:38.482Z,16.60
2017-05-11T04:57:07.013Z,16.10
2017-05-11T04:59:35.535Z,16.00
2017-05-11T05:02:04.161Z,16.10
2017-05-11T05:04:32.688Z,16.00
2017-05-11T05:07:01.213Z,16.40
2017-05-11T05:09:29.807Z,17.30
2017-05-11T05:11:58.324Z,17.90
2017-05-11T05:14:26.849Z,18.30
2017-05-11T05:16:55.397Z,19.00
2017-05-11T05:19:23.933Z,20.20
2017-05-11T05:21:52.501Z,21.50
2017-05-11T05:24:21.069Z,22.80
2017-05-11T05:26:49.595Z,23.70
2017-05-11T05:29:18.114Z,24.60
2017-05-11T05:31:46.674Z,26.50
2017-05-11T05:34:15.197Z,27.30
2017-05-11T05:36:43.714Z,28.30
2017-05-11T05:39:12.274Z,28.70
2017-05-11T05:41:40.833Z,29.00
2017-05-11T05:44:09.750Z,29.60
2017-05-11T05:46:38.299Z,30.20
2017-05-11T05:49:06.801Z,30.80
2017-05-11T05:51:35.395Z,31.80
2017-05-11T05:54:03.955Z,31.30
2017-05-11T05:56:32.472Z,31.30
2017-05-11T05:59:01.006Z,31.90
2017-05-11T06:01:29.645Z,31.70
2017-05-11T06:03:58.248Z,32.40
2017-05-11T06:06:26.762Z,33.20
2017-05-11T06:08:55.318Z,33.10
2017-05-11T06:11:23.836Z,32.00
2017-05-11T06:13:52.369Z,31.70
2017-05-11T06:16:20.924Z,30.80
2017-05-11T06:18:49.429Z,30.80
2017-05-11T06:21:17.952Z,30.70
2017-05-11T06:23:46.500Z,30.60
2017-05-11T06:26:15.021Z,30.50
2017-05-11T06:28:43.550Z,29.20
2017-05-11T06:31:12.095Z,27.50
2017-05-11T06:33:40.606Z,27.00
2017-05-11T06:36:09.107Z,26.40
2017-05-11T06:38:37.649Z,26.70
2017-05-11T06:41:06.148Z,26.30
2017-05-11T06:43:34.659Z,26.10
2017-05-11T06:46:03.213Z,26.50
2017-05-11T06:48:31.716Z,26.70
2017-05-11T06:51:00.220Z,26.30
2017-05-11T06:53:28.770Z,25.90
2017-05-11T06:55:57.293Z,25.80
2017-05-11T06:58:25.804Z,26.00
2017-05-11T07:00:54.349Z,26.20
2017-05-11T07:03:22.853Z,26.30
2017-05-11T07:05:51.356Z,25.60
2017-05-11T07:08:19.914Z,25.40
2017-05-11T07:10:48.430Z,25.00
2017-05-11T07:13:16.925Z,24.40
2017-05-11T07:15:45.472Z,24.70
2017-05-11T07:18:13.981Z,25.10
2017-05-11T07:20:42.491Z,25.10
2017-05-11T07:23:11.032Z,25.10
2017-05-11T07:25:39.545Z,26.00
2017-05-11T07:28:08.053Z,26.70
2017-05-11T07:30:36.599Z,27.20
2017-05-11T07:33:05.116Z,28.40
2017-05-11T07:35:33.632Z,28.60
2017-05-11T07:38:02.177Z,29.80
2017-05-11T07:40:30.689Z,31.10
2017-05-11T07:42:59.188Z,31.90
2017-05-11T07:45:27.741Z,32.70
2017-05-11T07:47:56.240Z,33.70
2017-05-11T07:50:24.736Z,35.90
2017-05-11T07:52:53.279Z,36.30
2017-05-11T07:55:21.787Z,35.70
2017-05-11T07:57:50.308Z,34.90
2017-05-11T08:00:18.881Z,35.00
2017-05-11T08:02:47.399Z,35.10
2017-05-11T08:05:15.912Z,34.70
2017-05-11T08:07:44.489Z,35.40
2017-05-11T08:10:13.095Z,35.30
2017-05-11T08:12:41.623Z,35.30
2017-05-11T08:15:10.185Z,35.80
2017-05-11T08:17:38.705Z,37.00
2017-05-11T08:20:07.213Z,37.70
2017-05-11T08:22:35.774Z,36.40
2017-05-11T08:25:04.274Z,36.90
2017-05-11T08:27:32.786Z,37.90
2017-05-11T08:30:01.345Z,37.80
2017-05-11T08:32:29.860Z,38.00
2017-05-11T08:34:58.365Z,37.30
2017-05-11T08:37:26.913Z,37.70
2017-05-11T08:39:55.434Z,38.40
2017-05-11T08:42:23.932Z,38.90
2017-05-11T08:44:52.474Z,38.50
2017-05-11T08:47:20.983Z,37.90
2017-05-11T08:49:49.489Z,37.90
2017-05-11T08:52:18.049Z,38.40
2017-05-11T08:54:46.565Z,37.30
2017-05-11T08:57:15.068Z,36.20
2017-05-11T08:59:43.624Z,35.70
2017-05-11T09:02:12.125Z,34.40
2017-05-11T09:04:40.629Z,35.50
2017-05-11T09:07:09.177Z,36.40
2017-05-11T09:09:37.700Z,36.30
2017-05-11T09:12:06.222Z,36.30
2017-05-11T09:14:34.763Z,36.40
2017-05-11T09:17:03.270Z,35.80
2017-05-11T09:19:31.786Z,36.00
2017-05-11T09:22:00.367Z,34.90
2017-05-11T09:24:28.893Z,34.30
2017-05-11T09:26:57.412Z,32.80
2017-05-11T09:29:25.972Z,30.40
2017-05-11T09:31:54.480Z,28.00
2017-05-11T09:34:22.996Z,26.10
2017-05-11T09:36:51.563Z,25.00
2017-05-11T09:39:20.076Z,24.30
2017-05-11T09:41:48.580Z,23.80
2017-05-11T09:44:17.157Z,23.80
2017-05-11T09:46:45.676Z,23.90
2017-05-11T09:49:14.186Z,23.70
2017-05-11T09:51:42.728Z,23.50
2017-05-11T09:54:11.265Z,23.40
2017-05-11T09:56:39.776Z,23.20
2017-05-11T09:59:08.346Z,22.90
2017-05-11T10:01:36.855Z,22.60
2017-05-11T10:04:05.392Z,22.30
2017-05-11T10:06:33.944Z,21.50
2017-05-11T10:09:02.452Z,21.20
2017-05-11T10:11:30.959Z,21.10
2017-05-11T10:13:59.503Z,21.10
2017-05-11T10:16:28.001Z,21.10
2017-05-11T10:18:56.520Z,21.10
2017-05-11T10:21:25.069Z,21.20
2017-05-11T10:23:53.585Z,21.30
2017-05-11T10:26:22.084Z,21.40
2017-05-11T10:28:50.634Z,21.40
2017-05-11T10:31:19.140Z,21.50
2017-05-11T10:33:47.655Z,21.60
2017-05-11T10:36:16.216Z,21.50
2017-05-11T10:38:44.725Z,21.20
2017-05-11T10:41:13.234Z,21.00
2017-05-11T10:43:41.789Z,21.10
2017-05-11T10:46:10.292Z,21.30
2017-05-11T10:48:38.805Z,21.40
2017-05-11T10:51:07.353Z,21.30
2017-05-11T10:53:35.857Z,21.20
2017-05-11T10:56:04.359Z,20.90
2017-05-11T10:58:32.906Z,20.90
2017-05-11T11:01:01.412Z,20.90
2017-05-11T11:03:29.915Z,21.10
2017-05-11T11:05:58.469Z,21.30
2017-05-11T11:08:26.972Z,21.50
2017-05-11T11:10:55.488Z,21.50
2017-05-11T11:13:24.029Z,21.50
2017-05-11T11:15:52.532Z,21.60
2017-05-11T11:18:21.041Z,21.60
2017-05-11T11:20:49.613Z,21.30
2017-05-11T11:23:18.124Z,20.90
2017-05-11T11:25:46.631Z,20.90
2017-05-11T11:28:15.204Z,21.10
2017-05-11T11:30:43.713Z,21.30
2017-05-11T11:33:12.227Z,21.40
2017-05-11T11:35:40.770Z,21.40
2017-05-11T11:38:09.288Z,21.20
2017-05-11T11:40:37.788Z,21.30
2017-05-11T11:43:06.329Z,21.40
2017-05-11T11:45:34.836Z,21.50
2017-05-11T11:48:03.348Z,21.40
2017-05-11T11:50:31.911Z,21.30
2017-05-11T11:53:00.417Z,21.30
2017-05-11T11:55:28.925Z,21.40
2017-05-11T11:57:57.470Z,21.50
2017-05-11T12:00:25.978Z,21.30
2017-05-11T12:02:54.495Z,21.30
2017-05-11T12:05:23.057Z,21.40
2017-05-11T12:07:51.565Z,21.30
2017-05-11T12:10:20.081Z,21.00
2017-05-11T12:12:48.636Z,21.10
2017-05-11T12:15:17.144Z,21.10
2017-05-11T12:17:45.654Z,21.10
2017-05-11T12:20:14.210Z,21.20
2017-05-11T12:22:42.718Z,21.50
2017-05-11T12:25:11.248Z,21.50
2017-05-11T12:27:39.821Z,21.40
2017-05-11T12:30:08.331Z,21.30
2017-05-11T12:32:36.837Z,21.00
2017-05-11T12:35:05.394Z,21.10
2017-05-11T12:37:33.904Z,21.20
2017-05-11T12:40:02.416Z,21.20
2017-05-11T12:42:30.954Z,21.00
2017-05-11T12:44:59.458Z,21.00
2017-05-11T12:47:27.959Z,21.00
2017-05-11T12:49:56.512Z,21.10
2017-05-11T12:52:25.022Z,21.20
2017-05-11T12:54:53.536Z,21.10
2017-05-11T12:57:22.158Z,21.10
2017-05-11T12:59:50.694Z,21.40
2017-05-11T13:02:19.239Z,21.50
2017-05-11T13:04:47.836Z,21.70
2017-05-11T13:07:16.371Z,21.60
2017-05-11T13:09:44.925Z,21.50
2017-05-11T13:12:13.515Z,21.20
2017-05-11T13:14:42.051Z,20.70
2017-05-11T13:17:10.591Z,20.80
2017-05-11T13:19:39.180Z,20.80
2017-05-11T13:22:07.717Z,20.80
2017-05-11T13:24:36.260Z,20.80
2017-05-11T13:27:04.844Z,21.00
2017-05-11T13:29:33.390Z,20.90
2017-05-11T13:32:01.936Z,20.80
2017-05-11T13:34:30.516Z,20.70
2017-05-11T13:36:59.051Z,20.60
2017-05-11T13:39:27.588Z,20.40
2017-05-11T13:41:56.191Z,20.50
2017-05-11T13:44:24.738Z,20.70
2017-05-11T13:46:53.281Z,20.70
2017-05-11T13:49:21.875Z,20.70
2017-05-11T13:51:50.408Z,20.50
2017-05-11T13:54:18.941Z,20.50
2017-05-11T13:56:47.531Z,20.50
2017-05-11T13:59:16.065Z,20.50
2017-05-11T14:01:44.603Z,20.50
2017-05-11T14:04:13.199Z,20.30
2017-05-11T14:06:41.741Z,20.10
2017-05-11T14:09:10.277Z,20.20
2017-05-11T14:11:38.868Z,20.20
2017-05-11T14:14:07.401Z,20.30
2017-05-11T14:16:35.945Z,20.40
2017-05-11T14:19:04.531Z,20.40
2017-05-11T14:21:33.067Z,20.50
2017-05-11T14:24:01.599Z,20.50
2017-05-11T14:26:30.204Z,20.60
2017-05-11T14:28:58.743Z,20.60
2017-05-11T14:31:27.279Z,20.60
2017-05-11T14:33:55.852Z,20.70
2017-05-11T14:36:24.388Z,20.90
2017-05-11T14:38:52.962Z,20.80
2017-05-11T14:41:21.558Z,20.50
2017-05-11T14:43:50.101Z,20.20
2017-05-11T14:46:18.650Z,20.10
2017-05-11T14:48:47.232Z,20.20
2017-05-11T14:51:15.834Z,20.20
2017-05-11T14:53:44.397Z,20.30
2017-05-11T14:56:12.999Z,20.30
2017-05-11T14:58:41.528Z,20.40
2017-05-11T15:01:10.061Z,20.40
2017-05-11T15:03:38.652Z,20.40
2017-05-11T15:06:07.200Z,20.30
2017-05-11T15:08:35.734Z,20.30
2017-05-11T15:11:04.345Z,20.30
2017-05-11T15:13:32.886Z,20.20
2017-05-11T15:16:01.427Z,20.30
2017-05-11T15:18:30.070Z,20.20
2017-05-11T15:20:58.614Z,20.10
2017-05-11T15:23:27.148Z,20.10
2017-05-11T15:25:55.732Z,20.20
2017-05-11T15:28:24.261Z,20.00
2017-05-11T15:30:52.809Z,20.00
2017-05-11T15:33:21.395Z,20.00
2017-05-11T15:35:49.925Z,20.00
2017-05-11T15:38:18.472Z,19.90
2017-05-11T15:40:47.052Z,19.80
2017-05-11T15:43:15.593Z,19.80
2017-05-11T15:45:44.124Z,19.90
2017-05-11T15:48:12.722Z,20.00
2017-05-11T15:50:41.257Z,20.10
2017-05-11T15:53:09.802Z,20.00
2017-05-11T15:55:38.430Z,20.00
2017-05-11T15:58:06.969Z,20.00
2017-05-11T16:00:35.512Z,20.10
2017-05-11T16:03:04.093Z,20.00
2017-05-11T16:05:32.628Z,20.00
2017-05-11T16:08:01.162Z,20.00
2017-05-11T16:10:29.758Z,19.90
2017-05-11T16:12:58.302Z,19.90
2017-05-11T16:15:26.854Z,19.80
2017-05-11T16:17:55.479Z,19.90
2017-05-11T16:20:24.026Z,19.90
2017-05-11T16:22:52.582Z,19.80
2017-05-11T16:25:21.159Z,19.80
2017-05-11T16:27:49.696Z,19.70
2017-05-11T16:30:18.236Z,19.70
2017-05-11T16:32:47.309Z,19.70
2017-05-11T16:35:15.851Z,19.60
2017-05-11T16:37:44.396Z,19.70
2017-05-11T16:40:12.981Z,19.60
2017-05-11T16:42:41.516Z,19.60
2017-05-11T16:45:10.065Z,19.50
2017-05-11T16:47:38.663Z,19.50
2017-05-11T16:50:07.196Z,19.50
2017-05-11T16:52:35.787Z,19.50
2017-05-11T16:55:04.369Z,19.40
2017-05-11T16:57:32.904Z,19.40
2017-05-11T17:00:01.449Z,19.30
2017-05-11T17:02:30.037Z,19.30
2017-05-11T17:04:58.575Z,19.20
2017-05-11T17:07:27.106Z,19.30
2017-05-11T17:09:55.685Z,19.20
2017-05-11T17:12:24.236Z,19.20
2017-05-11T17:14:52.774Z,19.20
2017-05-11T17:17:21.359Z,19.10
2017-05-11T17:19:49.891Z,19.00
2017-05-11T17:22:18.425Z,18.90
2017-05-11T17:24:47.004Z,18.80
2017-05-11T17:27:15.536Z,18.80
2017-05-11T17:29:44.073Z,18.60
2017-05-11T17:32:12.660Z,18.60
2017-05-11T17:34:41.195Z,18.40
2017-05-11T17:37:09.739Z,18.30
2017-05-11T17:39:38.347Z,18.30
2017-05-11T17:42:06.871Z,18.20
2017-05-11T17:44:35.414Z,18.20
2017-05-11T17:47:04.000Z,18.10
2017-05-11T17:49:32.545Z,18.10
2017-05-11T17:52:01.094Z,18.00
2017-05-11T17:54:29.673Z,17.90
2017-05-11T17:56:58.203Z,17.80
2017-05-11T17:59:26.751Z,17.70
2017-05-11T18:01:55.342Z,17.60
2017-05-11T18:04:23.891Z,17.50
2017-05-11T18:06:52.432Z,17.50
2017-05-11T18:09:21.022Z,17.40
2017-05-11T18:11:49.578Z,17.40
2017-05-11T18:14:18.109Z,17.10
2017-05-11T18:16:46.697Z,17.20
2017-05-11T18:19:15.238Z,17.20
2017-05-11T18:21:43.776Z,17.10
2017-05-11T18:24:12.492Z,17.00
2017-05-11T18:26:41.049Z,16.90
2017-05-11T18:29:10.130Z,16.80
2017-05-11T18:31:38.832Z,16.70
2017-05-11T18:34:07.389Z,16.70
2017-05-11T18:36:35.961Z,16.60
2017-05-11T18:39:04.640Z,16.50
2017-05-11T18:41:33.185Z,16.40
2017-05-11T18:44:01.924Z,16.40
2017-05-11T18:46:30.531Z,16.40
2017-05-11T18:48:59.078Z,16.30
2017-05-11T18:51:27.667Z,16.40
2017-05-11T18:53:56.310Z,16.30
2017-05-11T18:56:24.864Z,16.20
2017-05-11T18:58:53.409Z,16.20
2017-05-11T19:01:22.060Z,16.20
2017-05-11T19:03:50.711Z,16.10
2017-05-11T19:06:19.370Z,16.00
2017-05-11T19:08:48.011Z,15.90
2017-05-11T19:11:16.565Z,15.90
2017-05-11T19:13:45.746Z,15.90
2017-05-11T19:16:14.960Z,15.80
2017-05-11T19:18:43.528Z,15.70
2017-05-11T19:21:12.123Z,15.50
2017-05-11T19:23:40.754Z,15.50
2017-05-11T19:26:09.364Z,15.50
2017-05-11T19:28:37.940Z,15.40
2017-05-11T19:31:07.634Z,15.40
2017-05-11T19:33:36.287Z,15.40
2017-05-11T19:36:04.852Z,15.30
2017-05-11T19:38:33.458Z,15.30
2017-05-11T19:41:02.034Z,15.30
2017-05-11T19:43:30.592Z,15.20
2017-05-11T19:45:59.186Z,15.10
2017-05-11T19:48:27.737Z,15.10
2017-05-11T19:50:56.633Z,15.00
2017-05-11T19:53:25.252Z,15.00
2017-05-11T19:55:53.801Z,14.90
2017-05-11T19:58:23.274Z,14.90
2017-05-11T20:00:52.073Z,14.80
2017-05-11T20:03:20.628Z,14.80
2017-05-11T20:05:49.204Z,14.70
2017-05-11T20:08:17.822Z,14.60
2017-05-11T20:10:47.122Z,14.50
2017-05-11T20:13:15.665Z,14.50
2017-05-11T20:15:44.277Z,14.40
2017-05-11T20:18:12.822Z,14.40
2017-05-11T20:20:41.363Z,14.40
2017-05-11T20:23:09.970Z,14.30
2017-05-11T20:25:38.528Z,14.30
2017-05-11T20:28:07.076Z,14.20
2017-05-11T20:30:35.683Z,14.00
2017-05-11T20:33:04.273Z,13.90
2017-05-11T20:35:32.827Z,13.80
2017-05-11T20:38:01.429Z,13.90
2017-05-11T20:40:30.165Z,13.80
2017-05-11T20:42:58.744Z,13.70
2017-05-11T20:45:27.351Z,13.60
2017-05-11T20:47:55.920Z,13.50
2017-05-11T20:50:24.497Z,13.40
2017-05-11T20:52:53.101Z,13.40
2017-05-11T20:55:21.646Z,13.30
2017-05-11T20:57:50.195Z,13.30
2017-05-11T21:00:18.804Z,13.20
2017-05-11T21:02:47.430Z,13.20
2017-05-11T21:05:15.994Z,13.10
2017-05-11T21:07:44.607Z,13.00
2017-05-11T21:10:13.154Z,13.00
2017-05-11T21:12:41.708Z,13.00
2017-05-11T21:15:10.309Z,12.90
2017-05-11T21:17:38.900Z,12.80
2017-05-11T21:20:08.228Z,12.70
2017-05-11T21:22:36.838Z,12.70
2017-05-11T21:25:05.398Z,12.60
2017-05-11T21:27:33.970Z,12.60
2017-05-11T21:30:02.583Z,12.60
2017-05-11T21:32:31.141Z,12.50
2017-05-11T21:34:59.706Z,12.50
2017-05-11T21:37:28.302Z,12.40
2017-05-11T21:39:56.857Z,12.40
2017-05-11T21:42:25.410Z,12.40
2017-05-11T21:44:54.009Z,12.30
2017-05-11T21:47:22.563Z,12.30
2017-05-11T21:49:51.129Z,12.30
2017-05-11T21:52:19.751Z,12.10
2017-05-11T21:54:48.312Z,12.10
2017-05-11T21:57:16.866Z,12.10
2017-05-11T21:59:45.484Z,12.10
2017-05-11T22:02:14.016Z,12.00
2017-05-11T22:04:42.565Z,12.00
2017-05-11T22:07:11.157Z,12.00
2017-05-11T22:09:39.733Z,12.00
2017-05-11T22:12:08.283Z,11.90
2017-05-11T22:14:36.877Z,11.90
2017-05-11T22:17:05.447Z,11.80
2017-05-11T22:19:34.017Z,11.80
2017-05-11T22:22:02.631Z,11.80
2017-05-11T22:24:31.229Z,11.70
2017-05-11T22:26:59.896Z,11.60
2017-05-11T22:29:28.691Z,11.60
2017-05-11T22:31:57.253Z,11.50
2017-05-11T22:34:25.912Z,11.50
2017-05-11T22:36:54.567Z,11.50
2017-05-11T22:39:23.160Z,11.50
2017-05-11T22:41:51.788Z,11.40
2017-05-11T22:44:20.419Z,11.40
2017-05-11T22:46:48.976Z,11.30
2017-05-11T22:49:17.523Z,11.20
2017-05-11T22:51:46.130Z,11.20
2017-05-11T22:54:14.677Z,11.20
2017-05-11T22:56:43.236Z,11.20
2017-05-11T22:59:11.839Z,11.10
2017-05-11T23:01:40.383Z,11.00
2017-05-11T23:04:08.938Z,11.10
2017-05-11T23:06:37.560Z,11.10
2017-05-11T23:09:06.112Z,11.10
2017-05-11T23:11:34.671Z,11.10
2017-05-11T23:14:03.283Z,11.00
2017-05-11T23:16:31.836Z,11.00
2017-05-11T23:19:00.420Z,11.00
2017-05-11T23:21:29.033Z,11.00
2017-05-11T23:23:57.635Z,11.00
2017-05-11T23:26:26.183Z,10.90
2017-05-11T23:28:54.847Z,10.90
2017-05-11T23:31:23.427Z,10.90
2017-05-11T23:33:51.991Z,10.90
2017-05-11T23:36:20.604Z,10.80
2017-05-11T23:38:49.195Z,10.80
2017-05-11T23:41:17.770Z,10.70
2017-05-11T23:43:46.369Z,10.70
2017-05-11T23:46:14.953Z,10.80
2017-05-11T23:48:43.527Z,10.70
2017-05-11T23:51:12.115Z,10.60
2017-05-11T23:53:40.669Z,10.60
2017-05-11T23:56:09.241Z,10.60
2017-05-11T23:58:37.838Z,10.60
